Time;durP1;ratioP1;P1;durP2;ratioP2;P2;SDS_P1;SDS_P2;PMS_P1;PMS_P2;Temp;Humidity;BMP_temperature;BMP_pressure;BME280_temperature;BME280_humidity;BME280_pressure;Samples;Min_cycle;Max_cycle;Signal;HPM_P1;HPM_P2
2021/04/01 00:00:22;;;;;;;4.50;3.30;;;;;;;7.73;67.47;99361.53;5071953;28;20293;-81
2021/04/01 00:02:50;;;;;;;6.60;3.00;;;;;;;7.46;68.20;99354.47;5073352;28;20049;-81
2021/04/01 00:05:16;;;;;;;8.70;3.35;;;;;;;7.41;67.95;99330.59;5073148;28;20059;-80
2021/04/01 00:07:44;;;;;;;6.07;2.63;;;;;;;7.51;68.34;99343.16;5073356;28;20105;-81
2021/04/01 00:10:13;;;;;;;5.78;3.38;;;;;;;7.46;68.43;99337.41;5069897;28;20500;-81
2021/04/01 00:13:05;;;;;;;5.00;3.35;;;;;;;7.74;67.41;99347.00;5070930;28;20103;-81
2021/04/01 00:15:32;;;;;;;6.15;3.40;;;;;;;7.57;68.04;99348.78;5067830;28;20561;-81
2021/04/01 00:17:59;;;;;;;10.60;3.45;;;;;;;7.55;67.85;99345.38;5072980;28;20428;-81
2021/04/01 00:20:25;;;;;;;9.95;3.50;;;;;;;7.65;67.48;99331.75;5072811;28;20489;-81
2021/04/01 00:22:55;;;;;;;18.17;3.60;;;;;;;7.60;67.01;99317.84;5072070;28;20047;-80
2021/04/01 00:25:23;;;;;;;10.27;3.17;;;;;;;7.55;67.76;99355.38;5071658;28;20048;-81
2021/04/01 00:27:50;;;;;;;4.75;3.28;;;;;;;7.15;68.47;99333.34;5073317;28;20059;-80
2021/04/01 00:30:19;;;;;;;7.35;3.22;;;;;;;7.07;69.02;99344.91;5072668;28;20508;-81
2021/04/01 00:43:32;;;;;;;10.63;3.25;;;;;;;7.05;68.48;99319.91;5131004;27;20372;-82
2021/04/01 00:45:59;;;;;;;8.60;3.50;;;;;;;7.09;69.00;99336.63;5131156;28;20047;-82
2021/04/01 00:48:25;;;;;;;6.20;3.22;;;;;;;6.99;69.49;99338.63;5130884;27;20130;-82
2021/04/01 00:50:52;;;;;;;12.52;3.72;;;;;;;7.14;69.91;99345.13;5130860;27;20047;-82
2021/04/01 00:53:18;;;;;;;5.70;3.17;;;;;;;6.98;70.26;99326.09;5129712;27;20108;-82
2021/04/01 00:55:49;;;;;;;7.03;3.28;;;;;;;7.02;69.93;99341.00;5128458;27;20044;-82
2021/04/01 00:58:15;;;;;;;6.18;3.70;;;;;;;7.22;68.78;99347.03;5130755;27;20055;-82
2021/04/01 01:00:43;;;;;;;9.43;4.03;;;;;;;7.16;68.72;99323.34;5110738;28;20088;-82
2021/04/01 01:03:10;;;;;;;6.70;3.35;;;;;;;7.13;69.09;99326.38;5117779;22;20052;-82
2021/04/01 01:05:36;;;;;;;5.68;3.97;;;;;;;7.11;68.68;99317.59;5108541;28;20105;-82
2021/04/01 01:08:11;;;;;;;8.85;3.30;;;;;;;7.15;68.79;99338.75;5100592;28;20047;-81
2021/04/01 01:10:45;;;;;;;4.57;2.78;;;;;;;6.83;69.84;99306.91;5103179;28;20050;-83
2021/04/01 01:14:01;;;;;;;5.13;3.55;;;;;;;6.97;69.88;99322.56;5098748;28;20055;-83
2021/04/01 01:16:28;;;;;;;8.32;3.53;;;;;;;6.80;69.75;99301.81;5103905;28;20166;-82
2021/04/01 01:18:54;;;;;;;5.18;3.13;;;;;;;6.87;69.29;99297.47;5091541;28;20048;-82
2021/04/01 01:21:55;;;;;;;7.60;3.70;;;;;;;6.86;69.85;99317.41;5103247;28;20138;-82
2021/04/01 01:41:45;;;;;;;5.47;3.58;;;;;;;6.74;69.91;99297.88;4991050;28;20055;-82
2021/04/01 01:44:14;;;;;;;9.83;4.50;;;;;;;6.55;70.14;99274.63;5035537;28;20056;-82
2021/04/01 01:46:41;;;;;;;9.13;3.78;;;;;;;6.50;70.17;99272.38;5069273;28;20782;-82
2021/04/01 01:49:07;;;;;;;8.73;3.90;;;;;;;6.47;70.58;99278.06;5081355;28;20044;-82
2021/04/01 01:51:34;;;;;;;7.20;4.07;;;;;;;6.43;70.88;99287.50;5084891;28;20055;-81
2021/04/01 01:54:00;;;;;;;9.45;3.70;;;;;;;6.29;70.93;99269.13;5094347;28;20511;-82
2021/04/01 01:56:27;;;;;;;6.32;3.50;;;;;;;6.38;71.16;99293.38;5091259;28;20625;-82
2021/04/01 01:58:57;;;;;;;9.85;3.95;;;;;;;6.25;71.57;99279.41;5094916;28;20044;-82
2021/04/01 02:01:25;;;;;;;8.98;4.50;;;;;;;6.40;71.03;99292.34;5094925;28;20101;-82
2021/04/01 02:03:52;;;;;;;6.28;3.85;;;;;;;6.23;71.34;99270.59;5094901;28;20087;-81
2021/04/01 02:06:20;;;;;;;6.07;3.53;;;;;;;6.36;71.13;99295.38;5094275;28;20044;-82
2021/04/01 02:08:47;;;;;;;7.43;3.65;;;;;;;6.29;71.09;99279.94;5095399;28;20062;-81
2021/04/01 02:11:15;;;;;;;6.65;4.32;;;;;;;6.31;71.05;99283.34;5091480;28;20048;-82
2021/04/01 02:13:42;;;;;;;10.50;3.50;;;;;;;6.41;70.59;99280.56;5083564;28;20436;-82
2021/04/01 02:16:11;;;;;;;9.93;3.47;;;;;;;6.13;71.96;99256.34;5086359;28;20044;-81
2021/04/01 02:18:38;;;;;;;8.20;3.83;;;;;;;6.21;72.08;99286.13;5095076;28;20499;-81
2021/04/01 02:21:08;;;;;;;10.02;4.70;;;;;;;6.09;71.88;99263.06;5094978;28;20097;-81
2021/04/01 02:23:34;;;;;;;;;;;;;;;5.95;72.83;99283.31;5076869;28;20055;-82
2021/04/01 02:26:02;;;;;;;7.60;3.75;;;;;;;5.80;72.95;99272.16;5073169;28;19920;-82
2021/04/01 02:28:30;;;;;;;7.35;3.95;;;;;;;5.99;71.97;99261.28;5073672;28;20052;-81
2021/04/01 02:30:58;;;;;;;6.70;3.90;;;;;;;5.98;72.11;99274.94;5074396;28;20044;-81
2021/04/01 02:33:27;;;;;;;9.25;4.28;;;;;;;5.98;72.33;99264.97;5085345;28;20052;-82
2021/04/01 02:35:54;;;;;;;6.40;3.85;;;;;;;5.95;72.80;99267.94;5093973;28;20044;-82
2021/04/01 02:38:20;;;;;;;6.03;3.70;;;;;;;5.92;72.58;99267.41;5092510;28;20509;-82
2021/04/01 02:40:47;;;;;;;8.07;3.83;;;;;;;5.80;73.08;99258.69;5093019;28;20047;-82
2021/04/01 02:43:15;;;;;;;9.05;4.28;;;;;;;5.65;73.07;99261.88;5093752;28;20044;-81
2021/04/01 02:45:41;;;;;;;9.88;4.25;;;;;;;5.59;74.31;99254.41;5093734;28;20040;-82
2021/04/01 02:48:08;;;;;;;6.30;4.22;;;;;;;5.60;73.86;99253.41;5093628;28;20055;-81
2021/04/01 02:50:35;;;;;;;8.57;3.80;;;;;;;5.74;73.97;99270.91;5094191;28;20048;-81
2021/04/01 02:53:02;;;;;;;8.50;3.90;;;;;;;5.77;74.46;99276.00;5093730;28;20503;-81
2021/04/01 02:55:28;;;;;;;10.07;4.35;;;;;;;5.77;73.98;99270.63;5092199;28;20048;-81
2021/04/01 02:57:55;;;;;;;8.82;3.85;;;;;;;5.74;74.07;99262.84;5093919;28;20044;-82
2021/04/01 03:00:27;;;;;;;5.28;3.65;;;;;;;5.92;73.47;99278.22;5094196;28;20077;-81
2021/04/01 03:02:56;;;;;;;5.90;3.38;;;;;;;5.88;72.74;99264.16;5088648;28;20480;-81
2021/04/01 03:05:22;;;;;;;5.50;3.67;;;;;;;5.79;73.09;99265.06;5093361;28;20052;-81
2021/04/01 03:07:50;;;;;;;7.00;3.60;;;;;;;5.82;72.91;99265.59;5093690;28;20396;-81
2021/04/01 03:10:16;;;;;;;7.95;3.85;;;;;;;5.80;72.57;99266.78;5092505;28;20441;-81
2021/04/01 03:12:43;;;;;;;7.63;4.25;;;;;;;5.89;71.97;99273.94;5091367;28;20047;-81
2021/04/01 03:15:11;;;;;;;6.60;3.70;;;;;;;5.88;72.23;99277.66;5092195;28;20040;-81
2021/04/01 03:17:38;;;;;;;5.03;3.75;;;;;;;5.63;73.37;99261.19;5093885;28;20048;-81
2021/04/01 03:20:06;;;;;;;9.25;4.00;;;;;;;5.54;73.02;99250.44;5093646;28;20047;-81
2021/04/01 03:22:32;;;;;;;10.73;4.40;;;;;;;5.56;73.55;99267.34;5093560;28;20416;-80
2021/04/01 03:25:00;;;;;;;6.10;3.55;;;;;;;5.41;73.82;99245.41;5092849;28;20054;-81
2021/04/01 03:27:26;;;;;;;8.70;4.07;;;;;;;5.56;73.20;99276.28;5093865;28;20106;-81
2021/04/01 03:30:06;;;;;;;5.38;3.55;;;;;;;5.27;74.55;99263.78;5093655;28;20054;-82
2021/04/01 03:32:33;;;;;;;6.85;3.80;;;;;;;5.39;75.07;99280.63;5093775;28;20484;-81
2021/04/01 03:35:00;;;;;;;13.85;3.67;;;;;;;5.37;75.01;99262.88;5092540;28;20050;-81
2021/04/01 03:37:27;;;;;;;8.05;4.10;;;;;;;5.50;74.63;99284.97;5092828;28;20040;-82
2021/04/01 03:39:54;;;;;;;8.10;3.78;;;;;;;5.47;74.13;99269.09;5091978;28;20075;-82
2021/04/01 03:42:23;;;;;;;8.07;4.32;;;;;;;5.46;74.31;99281.69;5092967;28;20122;-82
2021/04/01 03:44:49;;;;;;;5.07;3.60;;;;;;;5.35;74.10;99272.97;5092438;28;20059;-82
2021/04/01 03:47:16;;;;;;;8.48;4.05;;;;;;;5.40;73.46;99276.91;5093031;28;20063;-83
2021/04/01 03:49:42;;;;;;;6.00;3.88;;;;;;;5.31;73.74;99267.88;5090058;28;20060;-82
2021/04/01 03:52:09;;;;;;;6.47;3.55;;;;;;;5.46;73.90;99270.91;5092798;28;20075;-82
2021/04/01 03:55:00;;;;;;;12.52;4.38;;;;;;;5.29;74.53;99280.66;5091864;28;20502;-82
2021/04/01 03:57:28;;;;;;;7.00;3.95;;;;;;;5.08;74.99;99280.03;5092991;28;20058;-82
2021/04/01 03:59:58;;;;;;;12.27;4.43;;;;;;;5.08;74.94;99263.84;5092666;28;20056;-82
2021/04/01 04:02:37;;;;;;;8.30;3.53;;;;;;;5.12;74.44;99276.88;5092665;28;20064;-81
2021/04/01 04:05:13;;;;;;;9.27;3.40;;;;;;;5.14;74.74;99274.03;5092096;28;20121;-81
2021/04/01 04:13:21;;;;;;;11.05;5.43;;;;;;;5.06;74.49;99271.22;5064717;28;20090;-80
2021/04/01 04:15:47;;;;;;;7.35;4.55;;;;;;;4.99;75.08;99292.53;5090996;28;20059;-79
2021/04/01 04:18:14;;;;;;;6.15;3.90;;;;;;;5.01;74.79;99285.13;5089650;28;20040;-79
2021/04/01 04:20:40;;;;;;;3.90;3.30;;;;;;;5.02;74.49;99292.25;5086607;28;20048;-79
2021/04/01 04:23:08;;;;;;;12.90;4.32;;;;;;;5.03;74.39;99275.09;5082770;28;20097;-79
2021/04/01 04:25:35;;;;;;;6.55;3.95;;;;;;;4.99;74.61;99292.53;5089384;28;20481;-79
2021/04/01 04:28:15;;;;;;;6.75;4.22;;;;;;;5.08;74.63;99288.13;5089761;28;20210;-83
2021/04/01 04:30:42;;;;;;;7.00;4.43;;;;;;;4.91;75.55;99298.66;5090073;28;20101;-81
2021/04/01 04:33:10;;;;;;;8.55;4.22;;;;;;;4.79;76.52;99278.28;5086851;28;20047;-83
2021/04/01 04:35:36;;;;;;;8.77;3.80;;;;;;;4.68;76.38;99273.03;5092226;28;20074;-84
2021/04/01 04:38:03;;;;;;;6.13;3.65;;;;;;;4.76;76.25;99287.47;5092373;28;20102;-83
2021/04/01 04:40:31;;;;;;;11.85;4.32;;;;;;;4.84;76.23;99283.22;5090431;28;20047;-84
2021/04/01 04:42:58;;;;;;;8.07;4.05;;;;;;;4.94;75.62;99289.44;5089035;28;20052;-84
2021/04/01 04:45:26;;;;;;;6.65;3.58;;;;;;;4.85;75.72;99292.97;5090016;28;20048;-84
2021/04/01 04:47:53;;;;;;;7.57;4.25;;;;;;;4.87;75.59;99285.63;5089818;28;20064;-84
2021/04/01 04:50:22;;;;;;;10.00;4.63;;;;;;;5.00;75.46;99301.44;5090340;28;20040;-83
2021/04/01 04:52:49;;;;;;;6.43;4.60;;;;;;;4.96;75.82;99295.50;5089386;28;20044;-83
2021/04/01 04:55:16;;;;;;;8.20;3.65;;;;;;;4.83;76.03;99294.97;5086975;28;20052;-84
2021/04/01 04:57:47;;;;;;;15.00;4.20;;;;;;;4.88;75.85;99292.72;5089884;28;20043;-84
2021/04/01 05:05:49;;;;;;;12.25;5.43;;;;;;;4.73;76.10;99303.09;5087964;28;20059;-83
2021/04/01 05:08:18;;;;;;;12.02;4.05;;;;;;;4.67;76.36;99307.19;5092290;28;20048;-83
2021/04/01 05:10:45;;;;;;;7.72;4.20;;;;;;;4.82;76.03;99302.22;5091963;28;20106;-84
2021/04/01 05:13:15;;;;;;;9.18;4.63;;;;;;;4.82;75.87;99294.13;5073420;28;20109;-84
2021/04/01 05:15:47;;;;;;;14.50;4.50;;;;;;;4.92;75.09;99291.41;5080850;28;20412;-83
2021/04/01 05:18:27;;;;;;;7.32;4.78;;;;;;;4.89;76.46;99313.25;5093251;28;20064;-83
2021/04/01 05:20:54;;;;;;;11.20;3.97;;;;;;;4.87;76.23;99302.63;5096507;28;20466;-83
2021/04/01 05:23:37;;;;;;;7.82;4.53;;;;;;;4.95;76.34;99316.22;5096470;28;20048;-83
2021/04/01 05:28:51;;;;;;;9.45;4.47;;;;;;;5.00;76.02;99299.63;5095915;28;20059;-84
2021/04/01 05:31:19;;;;;;;9.32;3.85;;;;;;;5.00;76.05;99294.25;5095008;28;20142;-84
2021/04/01 05:33:50;;;;;;;18.92;5.05;;;;;;;5.12;76.12;99309.22;5093486;28;20527;-84
2021/04/01 05:36:22;;;;;;;11.40;5.20;;;;;;;5.09;75.39;99287.13;5092439;28;20048;-84
2021/04/01 05:38:53;;;;;;;7.20;4.38;;;;;;;5.20;76.20;99291.47;5094003;28;20051;-84
2021/04/01 05:41:23;;;;;;;8.00;4.32;;;;;;;5.29;76.08;99301.38;5092702;28;20052;-84
2021/04/01 05:43:52;;;;;;;10.45;5.70;;;;;;;5.32;76.24;99318.09;5092223;28;20079;-84
2021/04/01 05:46:23;;;;;;;8.00;3.77;;;;;;;5.44;76.21;99321.47;5089578;28;20044;-84
2021/04/01 05:49:00;;;;;;;7.13;4.25;;;;;;;5.57;76.02;99325.66;5090724;28;20731;-85
2021/04/01 05:51:53;;;;;;;9.05;4.45;;;;;;;5.61;75.27;99325.22;5093774;28;20160;-86
2021/04/01 05:57:36;;;;;;;9.25;4.40;;;;;;;6.38;72.93;99296.06;5093728;28;20058;-83
2021/04/01 06:03:01;;;;;;;10.35;4.32;;;;;;;7.52;69.04;99320.53;5071043;28;20140;-83
2021/04/01 06:05:32;;;;;;;11.48;4.85;;;;;;;7.82;67.49;99319.13;5092117;28;20072;-80
2021/04/01 06:08:07;;;;;;;7.30;4.38;;;;;;;7.84;66.93;99330.63;5092112;28;20066;-81
2021/04/01 06:10:39;;;;;;;7.50;4.30;;;;;;;8.10;66.16;99326.97;5092513;28;20086;-84
2021/04/01 06:13:09;;;;;;;11.68;5.35;;;;;;;8.41;65.01;99315.56;5092981;28;20044;-84
2021/04/01 06:15:36;;;;;;;12.00;5.13;;;;;;;8.26;65.04;99305.34;5092130;28;20052;-83
2021/04/01 06:18:10;;;;;;;12.10;5.05;;;;;;;8.18;65.33;99301.81;5091786;28;20056;-83
2021/04/01 06:20:46;;;;;;;14.98;6.07;;;;;;;8.25;66.05;99325.34;5085655;28;20052;-83
2021/04/01 06:23:17;;;;;;;6.93;4.00;;;;;;;8.11;66.22;99315.16;5092917;28;20052;-83
2021/04/01 06:25:48;;;;;;;9.60;4.38;;;;;;;8.26;65.11;99312.66;5092956;28;20461;-84
2021/04/01 06:28:21;;;;;;;11.23;4.22;;;;;;;8.29;65.64;99310.44;5093957;28;20048;-82
2021/04/01 06:31:00;;;;;;;7.85;3.80;;;;;;;8.46;65.27;99302.38;5089965;28;20048;-83
2021/04/01 06:33:29;;;;;;;12.85;4.13;;;;;;;8.98;64.69;99322.88;5092547;28;20048;-83
2021/04/01 06:36:01;;;;;;;13.82;4.45;;;;;;;9.27;63.75;99303.31;5084460;28;20048;-83
2021/04/01 06:45:55;;;;;;;7.13;3.88;;;;;;;10.68;59.52;99288.03;5029471;28;20115;-82
2021/04/01 06:52:08;;;;;;;9.82;4.00;;;;;;;11.04;58.55;99286.53;5088883;28;20506;-84
2021/04/01 06:55:29;;;;;;;18.58;5.22;;;;;;;11.19;58.73;99279.25;5084135;28;20048;-83
2021/04/01 06:58:21;;;;;;;50.50;12.50;;;;;;;11.09;59.01;99305.88;5055824;28;20481;-83
2021/04/01 07:01:05;;;;;;;20.98;7.05;;;;;;;11.00;59.48;99290.66;5094065;28;20143;-83
2021/04/01 07:46:33;;;;;;;12.50;4.30;;;;;;;13.08;53.24;99294.81;5073063;28;20122;-83
2021/04/01 07:49:04;;;;;;;10.98;3.92;;;;;;;13.22;52.96;99293.06;5073506;28;20121;-82
2021/04/01 07:51:48;;;;;;;;;;;;;;;13.40;53.10;99296.16;5055640;28;20048;-82
2021/04/01 07:54:15;;;;;;;14.45;4.57;;;;;;;13.63;53.61;99304.06;5073343;28;19943;-82
2021/04/01 07:56:47;;;;;;;13.25;4.50;;;;;;;13.65;54.10;99273.81;5073105;28;20507;-82
2021/04/01 07:59:29;;;;;;;19.27;4.53;;;;;;;14.01;53.65;99283.63;5072345;28;20059;-83
2021/04/01 08:02:21;;;;;;;20.40;4.88;;;;;;;14.29;51.55;99285.44;5071706;28;20481;-83
2021/04/01 08:04:53;;;;;;;13.70;4.78;;;;;;;14.42;49.18;99270.91;5073018;28;20083;-82
2021/04/01 08:07:23;;;;;;;14.65;5.07;;;;;;;14.73;48.11;99281.31;5070170;28;20496;-83
2021/04/01 08:09:59;;;;;;;9.50;4.68;;;;;;;14.76;48.50;99272.69;5072633;28;20139;-83
2021/04/01 08:12:41;;;;;;;12.88;4.30;;;;;;;15.00;50.31;99290.38;5053207;28;20239;-84
2021/04/01 08:15:12;;;;;;;16.05;4.72;;;;;;;15.12;48.69;99297.97;5074386;28;20055;-83
2021/04/01 08:17:49;;;;;;;18.35;5.75;;;;;;;15.28;48.06;99281.09;5070829;28;20052;-82
2021/04/01 08:20:24;;;;;;;10.50;4.30;;;;;;;15.53;49.60;99280.41;5072529;28;20056;-82
2021/04/01 08:22:59;;;;;;;17.05;4.95;;;;;;;15.80;48.62;99281.22;5073014;28;20044;-83
2021/04/01 08:25:37;;;;;;;14.20;4.85;;;;;;;16.03;46.17;99279.84;5071587;28;20098;-83
2021/04/01 08:28:22;;;;;;;12.13;4.93;;;;;;;16.39;46.82;99278.41;5072762;28;20060;-83
2021/04/01 08:31:18;;;;;;;12.00;4.43;;;;;;;16.40;44.61;99258.97;5083521;28;20055;-83
2021/04/01 08:33:56;;;;;;;17.25;4.65;;;;;;;16.70;45.58;99279.50;5071591;28;20394;-83
2021/04/01 08:36:27;;;;;;;9.82;4.18;;;;;;;16.63;47.27;99272.16;5056856;28;20052;-83
2021/04/01 08:38:54;;;;;;;16.00;4.35;;;;;;;16.70;45.96;99266.59;5073145;28;20439;-83
2021/04/01 08:41:57;;;;;;;12.75;4.70;;;;;;;16.87;45.88;99266.91;5072393;28;20057;-82
2021/04/01 08:48:11;;;;;;;8.07;4.53;;;;;;;16.92;44.50;99263.50;5017121;28;20482;-82
2021/04/01 08:50:53;;;;;;;15.32;4.78;;;;;;;17.14;43.98;99275.75;5066391;28;20630;-82
2021/04/01 08:53:49;;;;;;;20.63;4.50;;;;;;;17.14;44.66;99269.44;5060181;28;20044;-82
2021/04/01 08:56:47;;;;;;;18.95;4.50;;;;;;;17.04;44.79;99269.97;5076028;28;20135;-82
2021/04/01 08:59:53;;;;;;;;;;;;;;;;;;;;;
2021/04/01 09:02:22;;;;;;;15.77;4.93;;;;;;;16.76;44.34;99259.38;5076909;28;20067;-83
2021/04/01 09:04:51;;;;;;;8.57;4.53;;;;;;;16.89;46.26;99258.44;5076451;28;20505;-83
2021/04/01 09:07:25;;;;;;;13.32;4.47;;;;;;;16.85;44.29;99263.53;5076654;28;20048;-83
2021/04/01 09:09:53;;;;;;;10.43;4.70;;;;;;;16.84;44.94;99272.81;5076142;28;20106;-82
2021/04/01 09:12:26;;;;;;;13.48;4.13;;;;;;;16.76;44.37;99271.19;5075850;28;20041;-81
2021/04/01 09:15:02;;;;;;;12.05;4.40;;;;;;;16.72;44.36;99264.47;5075730;28;20052;-82
2021/04/01 09:17:32;;;;;;;11.07;4.22;;;;;;;16.84;43.14;99269.25;5075387;28;20055;-82
2021/04/01 09:20:11;;;;;;;9.45;4.53;;;;;;;16.75;43.49;99265.94;5075004;28;20052;-81
2021/04/01 09:22:46;;;;;;;15.25;5.60;;;;;;;16.80;43.77;99269.69;5071531;28;20048;-84
2021/04/01 09:25:13;;;;;;;10.70;5.50;;;;;;;16.97;44.37;99249.94;5070800;28;20076;-83
2021/04/01 09:27:48;;;;;;;11.70;5.32;;;;;;;17.07;45.37;99243.94;5073799;28;20132;-82
2021/04/01 09:30:16;;;;;;;34.60;6.63;;;;;;;17.33;44.52;99251.91;5059001;28;20056;-81
2021/04/01 09:32:46;;;;;;;16.25;6.13;;;;;;;17.33;44.11;99240.09;5074728;28;20071;-80
2021/04/01 09:35:19;;;;;;;13.35;4.55;;;;;;;17.43;43.38;99253.31;5074970;28;20048;-82
2021/04/01 09:37:54;;;;;;;13.45;5.22;;;;;;;17.51;44.84;99251.09;5059625;28;20048;-81
2021/04/01 09:40:28;;;;;;;14.98;4.88;;;;;;;17.68;41.41;99256.00;5073152;28;20052;-80
2021/04/01 09:42:55;;;;;;;15.32;4.78;;;;;;;17.65;41.27;99240.78;5074914;28;20144;-82
2021/04/01 09:45:37;;;;;;;8.55;4.45;;;;;;;17.64;40.50;99241.88;5075164;28;20044;-82
2021/04/01 09:48:05;;;;;;;12.98;4.60;;;;;;;17.93;40.70;99247.69;5075907;28;20097;-82
2021/04/01 09:50:34;;;;;;;14.82;4.75;;;;;;;18.02;40.19;99251.78;5076002;28;20106;-82
2021/04/01 09:53:02;;;;;;;10.43;6.32;;;;;;;18.06;39.82;99235.66;5075691;28;20532;-80
2021/04/01 09:55:39;;;;;;;9.38;4.57;;;;;;;18.05;40.33;99234.00;5074789;28;20041;-82
2021/04/01 09:58:31;;;;;;;10.95;4.32;;;;;;;18.00;39.95;99225.59;5075448;28;20048;-82
2021/04/01 10:01:26;;;;;;;14.52;4.47;;;;;;;18.31;42.38;99242.97;5055591;28;20098;-83
2021/04/01 10:03:57;;;;;;;18.33;4.72;;;;;;;18.13;40.03;99221.84;5055471;28;20049;-82
2021/04/01 10:06:43;;;;;;;14.40;4.47;;;;;;;18.15;40.33;99219.69;5074439;28;20485;-83
2021/04/01 10:09:16;;;;;;;9.80;3.72;;;;;;;18.40;40.37;99230.53;5075530;28;20041;-81
2021/04/01 10:11:47;;;;;;;14.25;4.22;;;;;;;18.57;39.82;99222.44;5074613;28;20228;-82
2021/04/01 10:14:16;;;;;;;11.23;4.20;;;;;;;18.71;39.54;99232.19;5072480;28;20045;-82
2021/04/01 10:16:59;;;;;;;11.85;4.13;;;;;;;18.64;40.14;99209.41;5074033;28;20084;-82
2021/04/01 10:19:38;;;;;;;16.40;4.43;;;;;;;18.95;41.35;99210.19;5075241;28;20052;-82
2021/04/01 10:22:06;;;;;;;8.48;4.07;;;;;;;18.95;39.83;99196.41;5075574;28;20044;-83
2021/04/01 10:24:43;;;;;;;9.35;3.55;;;;;;;19.08;40.36;99201.69;5074468;28;20050;-83
2021/04/01 10:27:36;;;;;;;11.13;3.70;;;;;;;19.07;39.56;99197.28;5071835;28;20048;-82
2021/04/01 10:30:08;;;;;;;9.25;4.00;;;;;;;19.31;39.39;99205.50;5075133;28;20658;-82
2021/04/01 10:32:43;;;;;;;12.88;3.33;;;;;;;19.31;38.61;99188.97;5074612;28;20087;-82
2021/04/01 10:35:12;;;;;;;13.73;4.20;;;;;;;19.36;38.42;99193.75;5073813;28;20453;-82
2021/04/01 10:37:56;;;;;;;13.88;4.25;;;;;;;19.38;38.45;99186.94;5073575;28;20436;-82
2021/04/01 10:40:24;;;;;;;6.30;3.55;;;;;;;19.50;38.18;99200.69;5074267;28;20109;-82
2021/04/01 10:43:06;;;;;;;7.40;4.55;;;;;;;19.38;38.89;99173.16;5074004;28;20131;-82
2021/04/01 10:45:36;;;;;;;7.05;3.88;;;;;;;19.43;38.77;99181.50;5063273;28;20056;-82
2021/04/01 10:48:21;;;;;;;9.68;3.45;;;;;;;19.59;39.50;99193.72;5065845;28;20052;-83
2021/04/01 10:50:50;;;;;;;9.40;3.95;;;;;;;19.70;39.86;99156.16;5072873;28;20060;-82
2021/04/01 10:53:23;;;;;;;11.75;3.58;;;;;;;19.98;38.86;99173.84;5071918;28;20053;-82
2021/04/01 10:55:50;;;;;;;15.18;3.70;;;;;;;20.12;37.70;99172.44;5064152;28;20051;-81
2021/04/01 10:58:17;;;;;;;7.25;2.60;;;;;;;20.24;37.73;99166.03;5071655;28;20044;-82
2021/04/01 11:00:52;;;;;;;7.88;2.80;;;;;;;20.23;37.05;99156.06;5071611;28;20500;-83
2021/04/01 11:03:23;;;;;;;25.92;3.55;;;;;;;20.30;36.73;99160.34;5070916;28;20044;-82
2021/04/01 11:05:53;;;;;;;6.68;3.15;;;;;;;20.33;36.30;99145.22;5068639;28;20055;-81
2021/04/01 11:08:22;;;;;;;4.82;2.58;;;;;;;20.27;36.41;99130.50;5072808;28;20131;-81
2021/04/01 11:10:57;;;;;;;7.80;2.55;;;;;;;20.49;37.44;99138.88;5071700;28;20067;-82
2021/04/01 11:13:45;;;;;;;7.60;3.10;;;;;;;20.46;36.41;99124.72;5073696;28;20074;-82
2021/04/01 11:16:15;;;;;;;8.68;3.03;;;;;;;20.65;35.58;99130.81;5068000;28;21548;-82
2021/04/01 11:18:51;;;;;;;10.50;2.92;;;;;;;20.66;36.03;99118.72;5070424;28;20048;-81
2021/04/01 11:21:20;;;;;;;5.95;3.58;;;;;;;20.87;35.92;99119.88;5069483;28;20049;-82
2021/04/01 11:23:50;;;;;;;6.87;2.73;;;;;;;20.91;35.84;99118.28;5071021;28;20048;-82
2021/04/01 11:26:26;;;;;;;12.25;2.45;;;;;;;21.03;36.21;99134.75;5059460;28;20053;-82
2021/04/01 11:28:53;;;;;;;9.52;2.80;;;;;;;21.06;37.18;99125.13;5067714;28;20058;-82
2021/04/01 11:31:24;;;;;;;6.60;2.70;;;;;;;21.17;37.38;99104.84;5071537;28;20045;-81
2021/04/01 11:33:52;;;;;;;8.60;2.25;;;;;;;21.21;34.06;99111.50;5070679;28;20044;-82
2021/04/01 11:36:20;;;;;;;7.93;2.30;;;;;;;21.18;34.18;99096.28;5072093;28;20064;-82
2021/04/01 11:38:49;;;;;;;5.30;2.55;;;;;;;21.42;35.10;99114.53;5071271;28;20072;-82
2021/04/01 11:41:21;;;;;;;10.37;2.13;;;;;;;21.45;33.97;99094.66;5071548;28;20049;-82
2021/04/01 11:43:50;;;;;;;6.47;2.00;;;;;;;21.51;33.62;99096.41;5064010;28;20299;-82
2021/04/01 11:46:21;;;;;;;13.23;2.37;;;;;;;21.76;33.67;99100.59;5069140;28;20048;-82
2021/04/01 11:48:49;;;;;;;18.58;3.42;;;;;;;21.94;33.66;99091.09;5052782;28;20325;-81
2021/04/01 11:51:20;;;;;;;11.40;3.03;;;;;;;21.88;32.24;99091.03;5070458;28;20080;-82
2021/04/01 11:53:47;;;;;;;7.88;2.60;;;;;;;21.97;32.26;99101.63;5071392;28;20059;-82
2021/04/01 11:56:13;;;;;;;9.55;2.45;;;;;;;22.01;31.48;99088.91;5070298;28;20053;-81
2021/04/01 11:58:41;;;;;;;9.07;2.33;;;;;;;22.27;32.15;99104.69;5065346;28;20417;-82
2021/04/01 12:01:12;;;;;;;4.88;2.05;;;;;;;22.28;30.94;99114.66;5062983;28;20059;-81
2021/04/01 12:03:50;;;;;;;5.18;2.03;;;;;;;22.49;30.97;99098.22;5070612;28;20093;-81
2021/04/01 12:06:17;;;;;;;8.45;2.03;;;;;;;22.78;30.71;99090.41;5069438;28;20048;-81
2021/04/01 12:08:44;;;;;;;4.63;2.00;;;;;;;22.88;30.42;99095.19;5071549;28;20045;-82
2021/04/01 12:11:10;;;;;;;4.53;2.35;;;;;;;22.93;30.64;99086.91;5070167;28;20131;-82
2021/04/01 12:13:37;;;;;;;8.75;2.20;;;;;;;23.16;30.23;99079.28;5069904;28;20048;-81
2021/04/01 12:16:15;;;;;;;5.88;1.85;;;;;;;23.25;30.44;99079.63;5065628;28;20390;-82
2021/04/01 12:18:42;;;;;;;10.48;3.88;;;;;;;23.43;29.80;99072.75;5070030;28;20086;-81
2021/04/01 12:21:15;;;;;;;12.32;2.58;;;;;;;23.63;29.35;99061.69;5070352;28;20049;-82
2021/04/01 12:23:50;;;;;;;6.53;2.05;;;;;;;23.72;29.24;99067.56;5069652;28;20497;-82
2021/04/01 12:26:18;;;;;;;5.30;1.80;;;;;;;23.66;29.04;99052.84;5069589;28;20045;-82
2021/04/01 12:28:54;;;;;;;13.57;2.10;;;;;;;23.45;29.37;99074.13;5069541;28;20040;-82
2021/04/01 12:31:29;;;;;;;3.45;2.10;;;;;;;23.56;29.18;99071.41;5070254;28;20098;-81
2021/04/01 12:33:56;;;;;;;10.13;2.20;;;;;;;23.62;30.03;99059.19;5065091;28;20072;-81
2021/04/01 12:36:32;;;;;;;8.77;2.13;;;;;;;23.44;30.00;99066.94;5069582;28;20040;-82
2021/04/01 12:39:01;;;;;;;7.60;2.47;;;;;;;23.32;30.12;99069.94;5069860;28;20045;-82
2021/04/01 12:41:30;;;;;;;5.50;2.40;;;;;;;22.98;29.70;99058.38;5069677;28;20272;-81
2021/04/01 12:43:58;;;;;;;8.57;2.97;;;;;;;22.67;30.72;99071.22;5070030;28;20484;-82
2021/04/01 12:46:37;;;;;;;8.07;3.60;;;;;;;22.57;30.57;99063.69;5069119;28;20063;-81
2021/04/01 12:49:04;;;;;;;6.53;3.28;;;;;;;22.52;30.51;99066.41;5067158;28;20504;-81
2021/04/01 12:51:42;;;;;;;7.68;3.35;;;;;;;22.62;30.34;99066.47;5069155;28;20045;-81
2021/04/01 12:54:09;;;;;;;5.10;2.50;;;;;;;22.62;29.26;99070.06;5069763;28;20131;-82
2021/04/01 12:56:39;;;;;;;14.65;3.15;;;;;;;22.53;29.06;99065.31;5066637;28;20075;-82
2021/04/01 12:59:07;;;;;;;8.55;3.10;;;;;;;22.67;29.04;99074.00;5066589;28;20049;-79
2021/04/01 13:01:39;;;;;;;7.85;3.10;;;;;;;22.63;29.32;99060.66;5064218;28;20052;-79
2021/04/01 13:04:12;;;;;;;13.27;3.15;;;;;;;22.83;29.33;99070.22;5067584;28;20041;-80
2021/04/01 13:06:45;;;;;;;7.35;3.15;;;;;;;22.55;30.29;99052.03;5072085;28;20485;-79
2021/04/01 13:12:10;;;;;;;10.70;2.75;;;;;;;22.91;30.65;99066.09;5040285;28;20032;-79
2021/04/01 13:14:37;;;;;;;12.07;3.42;;;;;;;22.76;30.37;99056.63;5062990;28;20488;-79
2021/04/01 13:17:03;;;;;;;9.65;3.20;;;;;;;22.80;30.55;99059.66;5072047;28;20086;-79
2021/04/01 13:19:31;;;;;;;7.72;2.92;;;;;;;22.93;29.58;99044.50;5070683;28;20052;-79
2021/04/01 13:22:07;;;;;;;9.73;3.28;;;;;;;23.12;28.97;99061.53;5072116;28;20052;-80
2021/04/01 13:24:41;;;;;;;9.05;3.47;;;;;;;22.89;29.02;99048.91;5071614;28;20076;-79
2021/04/01 13:27:09;;;;;;;6.40;3.10;;;;;;;22.92;30.07;99035.34;5071930;28;20048;-79
2021/04/01 13:29:37;;;;;;;10.60;3.08;;;;;;;23.02;28.46;99053.13;5071632;28;20048;-79
2021/04/01 13:32:06;;;;;;;11.93;3.17;;;;;;;22.63;27.88;99038.50;5053539;28;20136;-79
2021/04/01 13:34:40;;;;;;;12.17;2.97;;;;;;;22.54;28.14;99020.72;5064016;28;20048;-79
2021/04/01 13:37:10;;;;;;;8.90;3.15;;;;;;;22.53;28.23;99037.63;5068638;28;20413;-79
2021/04/01 13:39:39;;;;;;;10.40;4.00;;;;;;;22.59;28.40;99040.13;5063194;28;20102;-79
2021/04/01 13:42:10;;;;;;;9.43;3.53;;;;;;;22.44;28.67;99017.88;5070157;28;20051;-79
2021/04/01 13:44:41;;;;;;;12.88;3.38;;;;;;;22.57;29.01;99041.53;5072530;28;20489;-79
2021/04/01 13:47:08;;;;;;;15.02;3.05;;;;;;;22.45;28.99;99019.56;5072636;28;20049;-79